createdAt,value
2023-06-28T00:01:38.248Z,99519.64
2023-06-28T00:04:09.763Z,99521.54
2023-06-28T00:06:57.061Z,99519.70
2023-06-28T00:09:43.238Z,99520.84
2023-06-28T00:12:11.294Z,99527.52
2023-06-28T00:14:38.508Z,99531.02
2023-06-28T00:17:06.019Z,99534.98
2023-06-28T00:19:33.699Z,99535.27
2023-06-28T00:22:01.185Z,99535.58
2023-06-28T00:24:28.893Z,99539.79
2023-06-28T00:26:56.096Z,99542.59
2023-06-28T00:29:23.213Z,99542.63
2023-06-28T00:31:50.850Z,99540.71
2023-06-28T00:34:18.069Z,99542.11
2023-06-28T00:36:48.411Z,99544.81
2023-06-28T00:39:15.948Z,99542.54
2023-06-28T00:41:43.084Z,99541.75
2023-06-28T00:44:10.076Z,99540.00
2023-06-28T00:46:41.466Z,99535.41
2023-06-28T00:49:09.081Z,99538.89
2023-06-28T00:51:37.683Z,99536.13
2023-06-28T00:54:05.390Z,99541.14
2023-06-28T00:56:33.432Z,99538.66
2023-06-28T00:59:01.478Z,99542.05
2023-06-28T01:01:50.679Z,99545.31
2023-06-28T01:04:20.470Z,99543.60
2023-06-28T01:07:02.569Z,99538.12
2023-06-28T01:09:33.825Z,99534.83
2023-06-28T01:12:03.085Z,99540.52
2023-06-28T01:14:30.955Z,99542.17
2023-06-28T01:16:58.966Z,99542.19
2023-06-28T01:19:33.277Z,99541.98
2023-06-28T01:22:13.845Z,99537.23
2023-06-28T01:24:41.397Z,99533.66
2023-06-28T01:27:14.427Z,99535.52
2023-06-28T01:29:43.484Z,99531.91
2023-06-28T01:32:13.228Z,99534.55
2023-06-28T01:35:00.958Z,99534.48
2023-06-28T01:37:28.919Z,99532.11
2023-06-28T01:39:59.763Z,99528.11
2023-06-28T01:42:27.311Z,99526.83
2023-06-28T01:44:56.694Z,99526.33
2023-06-28T01:47:24.525Z,99526.19
2023-06-28T01:49:52.094Z,99527.98
2023-06-28T01:52:19.353Z,99527.02
2023-06-28T01:54:46.949Z,99527.45
2023-06-28T01:57:15.484Z,99527.52
2023-06-28T01:59:42.396Z,99521.21
2023-06-28T02:02:11.787Z,99524.82
2023-06-28T02:04:41.248Z,99521.36
2023-06-28T02:07:08.922Z,99524.56
2023-06-28T02:09:36.207Z,99520.80
2023-06-28T02:12:07.286Z,99521.20
2023-06-28T02:14:40.825Z,99520.66
2023-06-28T02:17:14.975Z,99516.73
2023-06-28T02:19:45.659Z,99513.02
2023-06-28T02:22:15.985Z,99519.33
2023-06-28T02:24:52.305Z,99520.44
2023-06-28T02:27:19.663Z,99518.46
2023-06-28T02:29:46.887Z,99516.77
2023-06-28T02:32:15.244Z,99516.50
2023-06-28T02:34:43.792Z,99518.77
2023-06-28T02:37:10.985Z,99518.41
2023-06-28T02:39:45.957Z,99513.05
2023-06-28T02:42:15.384Z,99509.41
2023-06-28T02:44:45.376Z,99513.63
2023-06-28T02:47:12.630Z,99516.07
2023-06-28T02:49:39.739Z,99517.52
2023-06-28T02:52:08.011Z,99517.50
2023-06-28T02:54:38.032Z,99516.44
2023-06-28T02:57:11.409Z,99522.01
2023-06-28T02:59:58.938Z,99521.97
2023-06-28T03:02:26.168Z,99524.34
2023-06-28T03:04:56.613Z,99531.21
2023-06-28T03:07:26.526Z,99529.70
2023-06-28T03:09:53.759Z,99525.15
2023-06-28T03:12:31.715Z,99523.98
2023-06-28T03:15:12.780Z,99517.94
2023-06-28T03:18:00.194Z,99513.12
2023-06-28T03:20:29.056Z,99516.52
2023-06-28T03:23:06.937Z,99514.34
2023-06-28T03:25:34.270Z,99514.42
2023-06-28T03:28:02.035Z,99512.48
2023-06-28T03:30:32.501Z,99511.10
2023-06-28T03:33:00.727Z,99509.55
2023-06-28T03:35:28.640Z,99511.55
2023-06-28T03:37:59.682Z,99507.73
2023-06-28T03:40:26.983Z,99507.89
2023-06-28T03:42:57.181Z,99503.55
2023-06-28T03:45:35.847Z,99505.70
2023-06-28T03:48:08.688Z,99506.34
2023-06-28T03:50:46.596Z,99512.88
2023-06-28T03:53:13.767Z,99512.14
2023-06-28T03:55:41.090Z,99510.09
2023-06-28T03:58:10.468Z,99511.68
2023-06-28T04:00:37.706Z,99510.41
2023-06-28T04:03:17.183Z,99516.20
2023-06-28T04:05:47.926Z,99520.04
2023-06-28T04:08:28.081Z,99524.75
2023-06-28T04:10:55.626Z,99525.79
2023-06-28T04:13:23.285Z,99522.64
2023-06-28T04:15:50.422Z,99524.32
2023-06-28T04:18:17.371Z,99522.50
2023-06-28T04:20:46.984Z,99520.42
2023-06-28T04:23:17.825Z,99514.90
2023-06-28T04:25:45.571Z,99513.96
2023-06-28T04:28:13.064Z,99516.14
2023-06-28T04:30:40.263Z,99516.00
2023-06-28T04:33:08.374Z,99522.36
2023-06-28T04:35:38.372Z,99521.13
2023-06-28T04:38:06.053Z,99525.36
2023-06-28T04:40:34.477Z,99531.22
2023-06-28T04:43:01.473Z,99532.73
2023-06-28T04:45:37.682Z,99538.33
2023-06-28T04:48:09.139Z,99538.06
2023-06-28T04:50:40.829Z,99532.17
2023-06-28T04:53:08.876Z,99535.65
2023-06-28T04:55:36.657Z,99532.80
2023-06-28T04:58:05.137Z,99533.27
2023-06-28T05:00:32.415Z,99531.05
2023-06-28T05:03:01.447Z,99528.20
2023-06-28T05:05:32.200Z,99527.73
2023-06-28T05:08:00.682Z,99532.30
2023-06-28T05:10:28.603Z,99530.13
2023-06-28T05:12:55.934Z,99530.40
2023-06-28T05:15:23.298Z,99528.95
2023-06-28T05:17:50.393Z,99529.98
2023-06-28T05:20:18.186Z,99526.79
2023-06-28T05:22:51.212Z,99524.51
2023-06-28T05:25:19.170Z,99523.42
2023-06-28T05:27:46.295Z,99522.83
2023-06-28T05:30:13.841Z,99520.48
2023-06-28T05:32:41.677Z,99515.77
2023-06-28T05:35:09.612Z,99517.09
2023-06-28T05:37:42.172Z,99517.29
2023-06-28T05:40:12.759Z,99516.41
2023-06-28T05:42:39.808Z,99509.97
2023-06-28T05:45:09.384Z,99507.17
2023-06-28T05:47:36.783Z,99499.86
2023-06-28T05:50:04.171Z,99505.69
2023-06-28T05:52:31.286Z,99501.11
2023-06-28T05:54:58.720Z,99495.58
2023-06-28T05:57:26.010Z,99497.88
2023-06-28T05:59:53.560Z,99497.45
2023-06-28T06:02:21.049Z,99496.18
2023-06-28T06:04:48.523Z,99493.19
2023-06-28T06:07:15.791Z,99488.92
2023-06-28T06:09:42.761Z,99482.26
2023-06-28T06:12:12.735Z,99476.60
2023-06-28T06:14:39.981Z,99470.81
2023-06-28T06:17:07.933Z,99474.25
2023-06-28T06:19:34.952Z,99471.28
2023-06-28T06:22:01.891Z,99469.63
2023-06-28T06:24:28.974Z,99468.92
2023-06-28T06:26:56.183Z,99465.42
2023-06-28T06:29:23.185Z,99463.08
2023-06-28T06:31:50.517Z,99459.11
2023-06-28T06:34:17.717Z,99456.59
2023-06-28T06:36:44.915Z,99457.55
2023-06-28T06:39:12.559Z,99464.38
2023-06-28T06:41:39.966Z,99463.20
2023-06-28T06:44:11.086Z,99456.30
2023-06-28T06:46:38.611Z,99456.36
2023-06-28T06:49:05.642Z,99455.30
2023-06-28T06:51:33.282Z,99455.53
2023-06-28T06:54:00.329Z,99455.00
2023-06-28T06:56:28.423Z,99452.41
2023-06-28T06:58:55.548Z,99457.04
2023-06-28T07:01:23.224Z,99454.43
2023-06-28T07:03:51.574Z,99456.84
2023-06-28T07:06:18.846Z,99455.15
2023-06-28T07:08:46.663Z,99455.48
2023-06-28T07:11:14.070Z,99456.17
2023-06-28T07:13:41.195Z,99451.80
2023-06-28T07:16:09.198Z,99450.77
2023-06-28T07:18:36.273Z,99459.09
2023-06-28T07:21:03.915Z,99459.58
2023-06-28T07:23:30.862Z,99452.11
2023-06-28T07:25:58.003Z,99452.18
2023-06-28T07:28:25.184Z,99457.49
2023-06-28T07:30:56.714Z,99461.05
2023-06-28T07:33:24.530Z,99462.33
2023-06-28T07:35:52.172Z,99461.64
2023-06-28T07:38:21.535Z,99461.77
2023-06-28T07:40:49.149Z,99458.39
2023-06-28T07:43:17.331Z,99453.30
2023-06-28T07:45:45.335Z,99455.14
2023-06-28T07:48:13.248Z,99454.27
2023-06-28T07:50:40.701Z,99455.73
2023-06-28T07:53:07.687Z,99451.52
2023-06-28T07:55:34.776Z,99450.70
2023-06-28T07:58:02.958Z,99450.72
2023-06-28T08:00:32.478Z,99446.45
2023-06-28T08:03:00.308Z,99447.40
2023-06-28T08:05:28.150Z,99450.75
2023-06-28T08:07:56.578Z,99444.10
2023-06-28T08:10:26.856Z,99441.91
2023-06-28T08:12:56.569Z,99444.23
2023-06-28T08:15:23.489Z,99446.96
2023-06-28T08:17:50.877Z,99447.30
2023-06-28T08:20:18.182Z,99448.11
2023-06-28T08:22:45.211Z,99447.25
2023-06-28T08:25:12.874Z,99450.65
2023-06-28T08:27:40.030Z,99447.64
2023-06-28T08:30:08.942Z,99443.88
2023-06-28T08:32:37.271Z,99449.67
2023-06-28T08:35:05.534Z,99441.11
2023-06-28T08:37:35.500Z,99449.20
2023-06-28T08:40:03.136Z,99453.80
2023-06-28T08:42:31.680Z,99455.30
2023-06-28T08:45:00.351Z,99458.70
2023-06-28T08:47:30.248Z,99453.73
2023-06-28T08:49:57.819Z,99459.65
2023-06-28T08:52:27.249Z,99462.39
2023-06-28T08:54:55.184Z,99452.38
2023-06-28T08:57:23.466Z,99439.34
2023-06-28T08:59:50.815Z,99441.76
2023-06-28T09:02:19.760Z,99440.82
2023-06-28T09:04:49.625Z,99436.33
2023-06-28T09:07:20.443Z,99442.19
2023-06-28T09:09:50.424Z,99447.69
2023-06-28T09:12:18.340Z,99445.64
2023-06-28T09:14:45.367Z,99445.30
2023-06-28T09:17:12.632Z,99442.23
2023-06-28T09:19:40.667Z,99436.86
2023-06-28T09:22:10.180Z,99432.98
2023-06-28T09:24:38.506Z,99429.31
2023-06-28T09:27:07.898Z,99424.41
2023-06-28T09:29:35.459Z,99422.75
2023-06-28T09:32:02.943Z,99417.47
2023-06-28T09:34:30.565Z,99421.20
2023-06-28T09:36:58.669Z,99420.13
2023-06-28T09:39:27.254Z,99427.73
2023-06-28T09:41:55.414Z,99437.40
2023-06-28T09:44:30.604Z,99432.27
2023-06-28T09:47:04.014Z,99436.94
2023-06-28T09:49:31.893Z,99432.23
2023-06-28T09:52:05.017Z,99435.45
2023-06-28T09:54:33.898Z,99435.70
2023-06-28T09:57:02.468Z,99436.17
2023-06-28T09:59:36.179Z,99429.89
2023-06-28T10:02:09.884Z,99432.90
2023-06-28T10:04:38.528Z,99422.10
2023-06-28T10:07:08.671Z,99436.17
2023-06-28T10:09:40.529Z,99434.52
2023-06-28T10:12:11.786Z,99441.95
2023-06-28T10:14:43.341Z,99435.30
2023-06-28T10:17:11.109Z,99437.63
2023-06-28T10:19:39.800Z,99435.36
2023-06-28T10:22:08.614Z,99434.98
2023-06-28T10:24:37.722Z,99436.61
2023-06-28T10:27:06.557Z,99439.33
2023-06-28T10:29:36.082Z,99436.59
2023-06-28T10:32:04.269Z,99431.02
2023-06-28T10:34:34.713Z,99433.62
2023-06-28T10:37:01.891Z,99432.20
2023-06-28T10:39:29.391Z,99428.05
2023-06-28T10:42:00.345Z,99429.52
2023-06-28T10:44:27.772Z,99429.16
2023-06-28T10:47:11.665Z,99433.02
2023-06-28T10:49:41.552Z,99436.83
2023-06-28T10:52:16.193Z,99437.75
2023-06-28T10:54:43.309Z,99433.15
2023-06-28T10:57:15.837Z,99433.64
2023-06-28T10:59:43.975Z,99427.69
2023-06-28T11:02:11.128Z,99429.43
2023-06-28T11:04:53.265Z,99426.65
2023-06-28T11:07:25.330Z,99424.02
2023-06-28T11:10:15.735Z,99429.77
2023-06-28T11:12:43.449Z,99422.25
2023-06-28T11:15:16.135Z,99425.00
2023-06-28T11:17:43.519Z,99421.96
2023-06-28T11:20:13.196Z,99430.92
2023-06-28T11:22:54.819Z,99430.29
2023-06-28T11:25:30.009Z,99440.85
2023-06-28T11:28:00.234Z,99444.33
2023-06-28T11:30:52.301Z,99453.73
2023-06-28T11:33:20.618Z,99451.89
2023-06-28T11:35:48.635Z,99454.80
2023-06-28T11:38:17.062Z,99452.55
2023-06-28T11:40:44.124Z,99456.80
2023-06-28T11:43:11.555Z,99454.64
2023-06-28T11:45:40.608Z,99452.20
2023-06-28T11:48:11.076Z,99452.77
2023-06-28T11:50:38.881Z,99459.24
2023-06-28T11:53:06.025Z,99452.90
2023-06-28T11:55:34.015Z,99451.55
2023-06-28T11:58:01.177Z,99455.86
2023-06-28T12:00:40.605Z,99452.04
2023-06-28T12:03:08.032Z,99452.18
2023-06-28T12:05:35.781Z,99453.70
2023-06-28T12:08:03.109Z,99461.42
2023-06-28T12:10:37.539Z,99462.02
2023-06-28T12:13:05.003Z,99470.31
2023-06-28T12:15:32.069Z,99463.48
2023-06-28T12:17:59.243Z,99464.52
2023-06-28T12:20:26.627Z,99472.60
2023-06-28T12:22:56.994Z,99472.23
2023-06-28T12:25:31.547Z,99478.52
2023-06-28T12:28:05.553Z,99486.40
2023-06-28T12:30:32.975Z,99494.91
2023-06-28T12:33:00.677Z,99490.32
2023-06-28T12:35:28.469Z,99501.85
2023-06-28T12:37:59.951Z,99500.05
2023-06-28T12:40:31.898Z,99505.95
2023-06-28T12:43:16.405Z,99502.47
2023-06-28T12:45:51.164Z,99501.09
2023-06-28T12:48:18.801Z,99508.98
2023-06-28T12:50:46.453Z,99504.40
2023-06-28T12:53:13.709Z,99502.52
2023-06-28T12:55:42.305Z,99502.73
2023-06-28T12:58:10.198Z,99500.73
2023-06-28T13:00:37.908Z,99502.19
2023-06-28T13:03:05.333Z,99505.27
2023-06-28T13:05:32.955Z,99507.28
2023-06-28T13:08:02.913Z,99503.88
2023-06-28T13:10:30.133Z,99505.05
2023-06-28T13:12:57.139Z,99505.61
2023-06-28T13:15:24.362Z,99500.46
2023-06-28T13:17:51.693Z,99503.03
2023-06-28T13:20:18.926Z,99508.32
2023-06-28T13:22:46.453Z,99508.65
2023-06-28T13:25:14.610Z,99513.35
2023-06-28T13:27:41.603Z,99517.66
2023-06-28T13:30:10.774Z,99508.86
2023-06-28T13:32:37.915Z,99511.58
2023-06-28T13:35:07.854Z,99522.75
2023-06-28T13:37:35.136Z,99516.43
2023-06-28T13:40:03.759Z,99520.45
2023-06-28T13:42:30.921Z,99524.23
2023-06-28T13:44:58.034Z,99521.46
2023-06-28T13:47:25.974Z,99522.30
2023-06-28T13:49:53.452Z,99525.06
2023-06-28T13:52:21.151Z,99521.05
2023-06-28T13:54:48.405Z,99519.06
2023-06-28T13:57:15.713Z,99517.44
2023-06-28T13:59:42.997Z,99513.14
2023-06-28T14:02:11.831Z,99519.40
2023-06-28T14:04:39.265Z,99520.59
2023-06-28T14:07:07.911Z,99521.30
2023-06-28T14:09:35.361Z,99530.35
2023-06-28T14:12:02.705Z,99528.03
2023-06-28T14:14:29.790Z,99530.00
2023-06-28T14:17:00.583Z,99529.10
2023-06-28T14:19:27.923Z,99527.64
2023-06-28T14:21:55.511Z,99530.52
2023-06-28T14:24:22.649Z,99527.94
2023-06-28T14:26:53.620Z,99529.75
2023-06-28T14:29:21.157Z,99522.55
2023-06-28T14:31:49.948Z,99521.35
2023-06-28T14:34:17.429Z,99517.20
2023-06-28T14:36:44.490Z,99509.40
2023-06-28T14:39:11.744Z,99515.31
2023-06-28T14:41:39.260Z,99517.98
2023-06-28T14:44:07.338Z,99519.14
2023-06-28T14:46:34.758Z,99523.24
2023-06-28T14:49:02.892Z,99529.07
2023-06-28T14:51:30.083Z,99530.83
2023-06-28T14:54:00.194Z,99536.44
2023-06-28T14:56:28.406Z,99538.79
2023-06-28T14:58:55.554Z,99538.01
2023-06-28T15:01:23.131Z,99540.38
2023-06-28T15:03:50.326Z,99545.73
2023-06-28T15:06:17.712Z,99551.29
2023-06-28T15:08:45.232Z,99553.11
2023-06-28T15:11:12.795Z,99552.81
2023-06-28T15:13:42.251Z,99552.48
2023-06-28T15:16:10.022Z,99551.42
2023-06-28T15:18:37.359Z,99553.02
2023-06-28T15:21:04.604Z,99556.00
2023-06-28T15:23:32.585Z,99554.80
2023-06-28T15:26:05.146Z,99556.30
2023-06-28T15:28:32.528Z,99556.27
2023-06-28T15:31:02.633Z,99559.93
2023-06-28T15:33:32.798Z,99564.77
2023-06-28T15:36:00.113Z,99567.97
2023-06-28T15:38:27.636Z,99570.16
2023-06-28T15:40:54.870Z,99569.66
2023-06-28T15:43:22.820Z,99571.77
2023-06-28T15:45:49.964Z,99570.77
2023-06-28T15:48:17.547Z,99570.16
2023-06-28T15:50:45.495Z,99568.45
2023-06-28T15:53:12.832Z,99569.58
2023-06-28T15:55:39.802Z,99566.70
2023-06-28T15:58:06.798Z,99571.64
2023-06-28T16:00:33.761Z,99569.89
2023-06-28T16:03:01.019Z,99564.60
2023-06-28T16:05:29.135Z,99566.72
2023-06-28T16:07:56.543Z,99563.38
2023-06-28T16:10:24.220Z,99565.14
2023-06-28T16:12:51.676Z,99560.45
2023-06-28T16:15:19.006Z,99551.86
2023-06-28T16:17:46.253Z,99552.31
2023-06-28T16:20:14.586Z,99561.95
2023-06-28T16:22:41.591Z,99568.52
2023-06-28T16:25:10.498Z,99561.79
2023-06-28T16:27:37.967Z,99559.29
2023-06-28T16:30:08.891Z,99553.86
2023-06-28T16:32:36.020Z,99544.18
2023-06-28T16:35:03.236Z,99547.50
2023-06-28T16:37:30.278Z,99547.36
2023-06-28T16:39:58.024Z,99550.89
2023-06-28T16:42:25.458Z,99546.84
2023-06-28T16:44:52.479Z,99547.53
2023-06-28T16:47:19.649Z,99546.67
2023-06-28T16:49:46.799Z,99549.02
2023-06-28T16:52:13.903Z,99552.01
2023-06-28T16:54:40.935Z,99552.36
2023-06-28T16:57:09.902Z,99554.16
2023-06-28T16:59:37.381Z,99561.02
2023-06-28T17:02:04.645Z,99560.35
2023-06-28T17:04:32.162Z,99560.88
2023-06-28T17:06:59.267Z,99561.36
2023-06-28T17:09:27.041Z,99564.41
2023-06-28T17:11:54.093Z,99563.20
2023-06-28T17:14:21.151Z,99562.84
2023-06-28T17:16:48.183Z,99557.29
2023-06-28T17:19:15.501Z,99559.71
2023-06-28T17:21:42.443Z,99553.54
2023-06-28T17:24:09.983Z,99559.35
2023-06-28T17:26:37.454Z,99561.91
2023-06-28T17:29:04.559Z,99564.64
2023-06-28T17:31:31.582Z,99564.95
2023-06-28T17:33:59.192Z,99573.23
2023-06-28T17:36:28.847Z,99572.64
2023-06-28T17:38:56.100Z,99575.55
2023-06-28T17:41:23.303Z,99579.89
2023-06-28T17:43:50.333Z,99578.47
2023-06-28T17:46:17.447Z,99575.34
2023-06-28T17:48:44.529Z,99574.74
2023-06-28T17:51:11.567Z,99579.25
2023-06-28T17:53:41.554Z,99575.70
2023-06-28T17:56:08.933Z,99577.28
2023-06-28T17:58:37.641Z,99578.49
2023-06-28T18:01:04.682Z,99579.59
2023-06-28T18:03:31.887Z,99589.21
2023-06-28T18:05:59.357Z,99594.40
2023-06-28T18:08:26.565Z,99599.08
2023-06-28T18:10:54.233Z,99598.40
2023-06-28T18:13:21.457Z,99596.97
2023-06-28T18:15:48.851Z,99590.31
2023-06-28T18:18:25.236Z,99590.61
2023-06-28T18:20:52.314Z,99591.37
2023-06-28T18:23:19.411Z,99587.02
2023-06-28T18:25:46.813Z,99590.95
2023-06-28T18:28:14.412Z,99591.02
2023-06-28T18:30:41.687Z,99595.52
2023-06-28T18:33:09.261Z,99596.63
2023-06-28T18:35:39.397Z,99592.23
2023-06-28T18:38:07.144Z,99597.08
2023-06-28T18:40:34.713Z,99598.02
2023-06-28T18:43:02.177Z,99592.84
2023-06-28T18:45:29.111Z,99599.84
2023-06-28T18:47:56.201Z,99599.70
2023-06-28T18:50:23.598Z,99599.64
2023-06-28T18:52:51.174Z,99602.56
2023-06-28T18:55:21.057Z,99607.03
2023-06-28T18:57:48.396Z,99607.29
2023-06-28T19:00:17.954Z,99609.05
2023-06-28T19:02:45.294Z,99607.69
2023-06-28T19:05:15.731Z,99611.16
2023-06-28T19:07:42.964Z,99614.20
2023-06-28T19:10:11.194Z,99618.29
2023-06-28T19:12:41.528Z,99621.59
2023-06-28T19:15:11.950Z,99627.83
2023-06-28T19:17:39.224Z,99627.33
2023-06-28T19:20:07.736Z,99632.38
2023-06-28T19:22:34.831Z,99637.00
2023-06-28T19:25:02.687Z,99635.01
2023-06-28T19:27:29.786Z,99639.34
2023-06-28T19:29:56.864Z,99646.34
2023-06-28T19:32:23.915Z,99647.48
2023-06-28T19:34:50.952Z,99651.71
2023-06-28T19:37:17.913Z,99654.72
2023-06-28T19:39:45.992Z,99649.09
2023-06-28T19:42:13.245Z,99654.02
2023-06-28T19:44:40.681Z,99651.56
2023-06-28T19:47:08.523Z,99658.20
2023-06-28T19:49:36.363Z,99653.08
2023-06-28T19:52:06.386Z,99654.17
2023-06-28T19:54:33.954Z,99652.11
2023-06-28T19:57:02.071Z,99651.91
2023-06-28T19:59:29.546Z,99651.13
2023-06-28T20:01:56.781Z,99656.39
2023-06-28T20:04:24.014Z,99660.98
2023-06-28T20:06:51.286Z,99663.80
2023-06-28T20:09:18.472Z,99662.95
2023-06-28T20:11:45.729Z,99663.95
2023-06-28T20:14:13.732Z,99663.04
2023-06-28T20:16:41.097Z,99667.23
2023-06-28T20:19:12.972Z,99671.05
2023-06-28T20:21:40.381Z,99676.95
2023-06-28T20:24:08.324Z,99676.66
2023-06-28T20:26:36.435Z,99677.80
2023-06-28T20:29:03.861Z,99674.01
2023-06-28T20:31:32.847Z,99679.15
2023-06-28T20:34:00.214Z,99684.02
2023-06-28T20:36:27.576Z,99689.36
2023-06-28T20:38:54.805Z,99691.24
2023-06-28T20:41:26.017Z,99690.05
2023-06-28T20:43:53.917Z,99693.40
2023-06-28T20:46:20.934Z,99693.39
2023-06-28T20:48:48.284Z,99691.61
2023-06-28T20:51:15.314Z,99687.98
2023-06-28T20:53:43.879Z,99687.77
2023-06-28T20:56:11.027Z,99688.73
2023-06-28T20:58:38.360Z,99692.95
2023-06-28T21:01:07.034Z,99694.27
2023-06-28T21:03:34.276Z,99691.27
2023-06-28T21:06:01.204Z,99693.98
2023-06-28T21:08:28.486Z,99689.88
2023-06-28T21:10:55.858Z,99685.36
2023-06-28T21:13:23.081Z,99687.02
2023-06-28T21:15:50.535Z,99681.14
2023-06-28T21:18:17.752Z,99680.36
2023-06-28T21:20:45.128Z,99687.80
2023-06-28T21:23:12.309Z,99686.91
2023-06-28T21:25:42.275Z,99691.20
2023-06-28T21:28:10.469Z,99689.88
2023-06-28T21:30:38.818Z,99688.89
2023-06-28T21:33:06.165Z,99690.03
2023-06-28T21:35:33.174Z,99685.81
2023-06-28T21:38:00.506Z,99687.03
2023-06-28T21:40:30.584Z,99687.91
2023-06-28T21:42:57.726Z,99687.97
2023-06-28T21:45:25.030Z,99690.14
2023-06-28T21:47:52.454Z,99686.88
2023-06-28T21:50:19.783Z,99687.69
2023-06-28T21:52:46.979Z,99695.30
2023-06-28T21:55:14.064Z,99696.17
2023-06-28T21:58:01.936Z,99693.63
2023-06-28T22:00:31.083Z,99692.92
2023-06-28T22:03:13.494Z,99693.42
2023-06-28T22:05:41.177Z,99689.28
2023-06-28T22:08:14.576Z,99690.52
2023-06-28T22:10:41.667Z,99691.84
2023-06-28T22:13:12.381Z,99694.59
2023-06-28T22:15:41.107Z,99697.45
2023-06-28T22:18:11.212Z,99696.65
2023-06-28T22:20:40.126Z,99696.86
2023-06-28T22:23:08.060Z,99697.58
2023-06-28T22:25:35.511Z,99698.31
2023-06-28T22:28:03.328Z,99698.37
2023-06-28T22:30:30.884Z,99698.80
2023-06-28T22:32:58.543Z,99699.02
2023-06-28T22:35:27.741Z,99698.77
2023-06-28T22:37:56.254Z,99701.11
2023-06-28T22:40:23.473Z,99700.45
2023-06-28T22:42:51.165Z,99705.64
2023-06-28T22:45:18.739Z,99706.54
2023-06-28T22:47:48.333Z,99704.10
2023-06-28T22:50:15.541Z,99707.97
2023-06-28T22:52:46.063Z,99707.77
2023-06-28T22:55:13.593Z,99713.55
2023-06-28T22:57:41.262Z,99710.05
2023-06-28T23:00:11.097Z,99713.73
2023-06-28T23:02:39.503Z,99712.52
2023-06-28T23:05:08.449Z,99712.55
2023-06-28T23:07:35.771Z,99715.73
2023-06-28T23:10:03.284Z,99715.39
2023-06-28T23:12:32.893Z,99715.91
2023-06-28T23:15:03.597Z,99715.77
2023-06-28T23:17:31.797Z,99713.63
2023-06-28T23:19:59.676Z,99714.96
2023-06-28T23:22:29.114Z,99713.05
2023-06-28T23:24:59.313Z,99714.48
2023-06-28T23:27:27.174Z,99717.16
2023-06-28T23:29:58.964Z,99719.74
2023-06-28T23:32:27.794Z,99717.34
2023-06-28T23:34:54.905Z,99726.44
2023-06-28T23:37:22.642Z,99726.17
2023-06-28T23:39:50.113Z,99726.70
2023-06-28T23:42:17.876Z,99723.91
2023-06-28T23:44:48.712Z,99719.29
2023-06-28T23:47:16.969Z,99717.75
2023-06-28T23:49:44.032Z,99718.94
2023-06-28T23:52:11.900Z,99729.15
2023-06-28T23:54:39.920Z,99734.58
2023-06-28T23:57:08.050Z,99737.40
2023-06-28T23:59:35.413Z,99735.39
